Metar z pełnej godziny Komunikat METAR ze strony awiacja.imgw.pl Metar G00 EPLB METAR EPLB 221400Z 30008KT CAVOK 18/05 Q1014 =